sensor_id;sensor_type;location;lat;lon;timestamp;P1;durP1;ratioP1;P2;durP2;ratioP2
75926;SDS011;64605;48.296;16.416;2023-03-01T00:01:22;35.58;;;21.83;;
75926;SDS011;64605;48.296;16.416;2023-03-01T00:03:50;42.67;;;23.67;;
75926;SDS011;64605;48.296;16.416;2023-03-01T00:06:17;36.28;;;22.23;;
75926;SDS011;64605;48.296;16.416;2023-03-01T00:08:43;38.00;;;22.40;;
75926;SDS011;64605;48.296;16.416;2023-03-01T00:13:40;35.08;;;22.27;;
75926;SDS011;64605;48.296;16.416;2023-03-01T00:16:07;34.10;;;21.67;;
75926;SDS011;64605;48.296;16.416;2023-03-01T00:18:35;37.35;;;22.38;;
75926;SDS011;64605;48.296;16.416;2023-03-01T00:21:00;35.35;;;22.15;;
75926;SDS011;64605;48.296;16.416;2023-03-01T00:23:26;36.67;;;21.52;;
75926;SDS011;64605;48.296;16.416;2023-03-01T00:25:52;34.00;;;22.25;;
75926;SDS011;64605;48.296;16.416;2023-03-01T00:28:19;37.45;;;23.73;;
75926;SDS011;64605;48.296;16.416;2023-03-01T00:30:45;38.20;;;23.17;;
75926;SDS011;64605;48.296;16.416;2023-03-01T00:33:10;36.03;;;22.45;;
75926;SDS011;64605;48.296;16.416;2023-03-01T00:35:36;40.97;;;24.23;;
75926;SDS011;64605;48.296;16.416;2023-03-01T00:38:02;38.45;;;24.60;;
75926;SDS011;64605;48.296;16.416;2023-03-01T00:40:29;34.88;;;23.08;;
75926;SDS011;64605;48.296;16.416;2023-03-01T00:42:57;37.20;;;24.88;;
75926;SDS011;64605;48.296;16.416;2023-03-01T00:45:23;38.92;;;23.60;;
75926;SDS011;64605;48.296;16.416;2023-03-01T00:47:49;38.17;;;23.27;;
75926;SDS011;64605;48.296;16.416;2023-03-01T00:50:15;40.65;;;23.77;;
75926;SDS011;64605;48.296;16.416;2023-03-01T00:52:41;39.80;;;24.70;;
75926;SDS011;64605;48.296;16.416;2023-03-01T00:55:07;38.03;;;24.27;;
75926;SDS011;64605;48.296;16.416;2023-03-01T00:57:33;38.88;;;24.67;;
75926;SDS011;64605;48.296;16.416;2023-03-01T00:59:58;37.72;;;23.65;;
75926;SDS011;64605;48.296;16.416;2023-03-01T01:02:24;37.83;;;24.20;;
75926;SDS011;64605;48.296;16.416;2023-03-01T01:04:50;37.33;;;23.90;;
75926;SDS011;64605;48.296;16.416;2023-03-01T01:07:16;38.90;;;24.23;;
75926;SDS011;64605;48.296;16.416;2023-03-01T01:09:41;39.90;;;24.38;;
75926;SDS011;64605;48.296;16.416;2023-03-01T01:12:07;41.17;;;24.17;;
75926;SDS011;64605;48.296;16.416;2023-03-01T01:14:33;40.20;;;24.55;;
75926;SDS011;64605;48.296;16.416;2023-03-01T01:17:00;37.35;;;23.58;;
75926;SDS011;64605;48.296;16.416;2023-03-01T01:19:26;38.28;;;24.48;;
75926;SDS011;64605;48.296;16.416;2023-03-01T01:21:52;38.72;;;24.38;;
75926;SDS011;64605;48.296;16.416;2023-03-01T01:24:18;39.80;;;24.98;;
75926;SDS011;64605;48.296;16.416;2023-03-01T01:26:44;38.85;;;24.58;;
75926;SDS011;64605;48.296;16.416;2023-03-01T01:29:10;37.33;;;24.45;;
75926;SDS011;64605;48.296;16.416;2023-03-01T01:31:37;38.50;;;25.30;;
75926;SDS011;64605;48.296;16.416;2023-03-01T01:34:04;39.78;;;24.77;;
75926;SDS011;64605;48.296;16.416;2023-03-01T01:36:31;41.60;;;24.92;;
75926;SDS011;64605;48.296;16.416;2023-03-01T01:38:57;37.42;;;24.60;;
75926;SDS011;64605;48.296;16.416;2023-03-01T01:41:24;40.05;;;25.17;;
75926;SDS011;64605;48.296;16.416;2023-03-01T01:46:41;38.47;;;25.33;;
75926;SDS011;64605;48.296;16.416;2023-03-01T01:51:58;40.13;;;24.67;;
75926;SDS011;64605;48.296;16.416;2023-03-01T01:57:06;41.67;;;25.35;;
75926;SDS011;64605;48.296;16.416;2023-03-01T01:59:35;40.03;;;26.15;;
75926;SDS011;64605;48.296;16.416;2023-03-01T02:02:03;43.13;;;26.55;;
75926;SDS011;64605;48.296;16.416;2023-03-01T02:04:29;41.15;;;26.00;;
75926;SDS011;64605;48.296;16.416;2023-03-01T02:07:16;40.60;;;26.95;;
75926;SDS011;64605;48.296;16.416;2023-03-01T02:09:48;38.35;;;24.88;;
75926;SDS011;64605;48.296;16.416;2023-03-01T02:12:17;44.80;;;27.05;;
75926;SDS011;64605;48.296;16.416;2023-03-01T02:14:45;45.25;;;25.92;;
75926;SDS011;64605;48.296;16.416;2023-03-01T02:17:11;40.50;;;26.25;;
75926;SDS011;64605;48.296;16.416;2023-03-01T02:22:27;39.00;;;25.55;;
75926;SDS011;64605;48.296;16.416;2023-03-01T02:27:49;42.20;;;26.38;;
75926;SDS011;64605;48.296;16.416;2023-03-01T02:30:38;42.92;;;27.02;;
75926;SDS011;64605;48.296;16.416;2023-03-01T02:33:25;43.92;;;27.88;;
75926;SDS011;64605;48.296;16.416;2023-03-01T02:35:51;42.08;;;26.70;;
75926;SDS011;64605;48.296;16.416;2023-03-01T02:38:19;43.00;;;27.40;;
75926;SDS011;64605;48.296;16.416;2023-03-01T02:40:47;44.85;;;27.42;;
75926;SDS011;64605;48.296;16.416;2023-03-01T02:43:15;43.28;;;28.02;;
75926;SDS011;64605;48.296;16.416;2023-03-01T02:45:49;44.55;;;26.65;;
75926;SDS011;64605;48.296;16.416;2023-03-01T02:48:15;44.63;;;27.25;;
75926;SDS011;64605;48.296;16.416;2023-03-01T02:50:46;42.40;;;26.40;;
75926;SDS011;64605;48.296;16.416;2023-03-01T02:53:32;44.13;;;27.15;;
75926;SDS011;64605;48.296;16.416;2023-03-01T02:56:07;40.22;;;26.95;;
75926;SDS011;64605;48.296;16.416;2023-03-01T02:58:37;43.95;;;27.17;;
75926;SDS011;64605;48.296;16.416;2023-03-01T03:01:10;45.25;;;27.75;;
75926;SDS011;64605;48.296;16.416;2023-03-01T03:03:38;41.50;;;27.60;;
75926;SDS011;64605;48.296;16.416;2023-03-01T03:06:04;45.63;;;28.10;;
75926;SDS011;64605;48.296;16.416;2023-03-01T03:08:29;47.03;;;28.33;;
75926;SDS011;64605;48.296;16.416;2023-03-01T03:10:55;46.22;;;29.75;;
75926;SDS011;64605;48.296;16.416;2023-03-01T03:13:21;40.13;;;27.10;;
75926;SDS011;64605;48.296;16.416;2023-03-01T03:15:47;44.40;;;27.13;;
75926;SDS011;64605;48.296;16.416;2023-03-01T03:18:14;47.80;;;29.30;;
75926;SDS011;64605;48.296;16.416;2023-03-01T03:20:41;45.55;;;28.83;;
75926;SDS011;64605;48.296;16.416;2023-03-01T03:23:08;43.40;;;29.02;;
75926;SDS011;64605;48.296;16.416;2023-03-01T03:25:34;47.65;;;29.73;;
75926;SDS011;64605;48.296;16.416;2023-03-01T03:28:03;46.78;;;31.30;;
75926;SDS011;64605;48.296;16.416;2023-03-01T03:30:34;49.28;;;31.00;;
75926;SDS011;64605;48.296;16.416;2023-03-01T03:33:04;48.70;;;29.50;;
75926;SDS011;64605;48.296;16.416;2023-03-01T03:35:31;49.47;;;30.85;;
75926;SDS011;64605;48.296;16.416;2023-03-01T03:38:00;49.60;;;31.13;;
75926;SDS011;64605;48.296;16.416;2023-03-01T03:40:35;46.20;;;30.83;;
75926;SDS011;64605;48.296;16.416;2023-03-01T03:43:06;49.05;;;31.23;;
75926;SDS011;64605;48.296;16.416;2023-03-01T03:45:33;48.03;;;30.50;;
75926;SDS011;64605;48.296;16.416;2023-03-01T03:48:00;44.78;;;29.98;;
75926;SDS011;64605;48.296;16.416;2023-03-01T03:50:27;47.35;;;30.73;;
75926;SDS011;64605;48.296;16.416;2023-03-01T03:52:53;45.35;;;28.95;;
75926;SDS011;64605;48.296;16.416;2023-03-01T03:55:18;48.15;;;30.27;;
75926;SDS011;64605;48.296;16.416;2023-03-01T03:57:45;45.65;;;29.48;;
75926;SDS011;64605;48.296;16.416;2023-03-01T04:00:17;45.88;;;27.55;;
75926;SDS011;64605;48.296;16.416;2023-03-01T04:02:45;45.47;;;27.10;;
75926;SDS011;64605;48.296;16.416;2023-03-01T04:05:12;40.78;;;27.10;;
75926;SDS011;64605;48.296;16.416;2023-03-01T04:07:39;49.85;;;28.05;;
75926;SDS011;64605;48.296;16.416;2023-03-01T04:10:06;44.70;;;28.90;;
75926;SDS011;64605;48.296;16.416;2023-03-01T04:12:36;49.45;;;28.90;;
75926;SDS011;64605;48.296;16.416;2023-03-01T04:15:05;46.53;;;27.70;;
75926;SDS011;64605;48.296;16.416;2023-03-01T04:17:39;46.10;;;28.55;;
75926;SDS011;64605;48.296;16.416;2023-03-01T04:20:06;42.38;;;28.13;;
75926;SDS011;64605;48.296;16.416;2023-03-01T04:22:37;43.75;;;27.55;;
75926;SDS011;64605;48.296;16.416;2023-03-01T04:25:03;40.05;;;26.55;;
75926;SDS011;64605;48.296;16.416;2023-03-01T04:27:34;43.33;;;27.98;;
75926;SDS011;64605;48.296;16.416;2023-03-01T04:30:01;44.92;;;28.23;;
75926;SDS011;64605;48.296;16.416;2023-03-01T04:32:28;46.15;;;28.13;;
75926;SDS011;64605;48.296;16.416;2023-03-01T04:34:53;46.90;;;29.15;;
75926;SDS011;64605;48.296;16.416;2023-03-01T04:37:19;49.63;;;29.55;;
75926;SDS011;64605;48.296;16.416;2023-03-01T04:39:44;47.67;;;27.83;;
75926;SDS011;64605;48.296;16.416;2023-03-01T04:42:11;45.25;;;27.60;;
75926;SDS011;64605;48.296;16.416;2023-03-01T04:44:37;45.55;;;28.40;;
75926;SDS011;64605;48.296;16.416;2023-03-01T04:47:02;45.40;;;27.55;;
75926;SDS011;64605;48.296;16.416;2023-03-01T04:49:28;42.90;;;27.77;;
75926;SDS011;64605;48.296;16.416;2023-03-01T04:51:54;44.95;;;27.88;;
75926;SDS011;64605;48.296;16.416;2023-03-01T04:54:19;39.70;;;27.08;;
75926;SDS011;64605;48.296;16.416;2023-03-01T04:56:45;40.25;;;26.90;;
75926;SDS011;64605;48.296;16.416;2023-03-01T04:59:11;43.78;;;28.27;;
75926;SDS011;64605;48.296;16.416;2023-03-01T05:01:37;44.33;;;28.50;;
75926;SDS011;64605;48.296;16.416;2023-03-01T05:04:03;41.22;;;28.05;;
75926;SDS011;64605;48.296;16.416;2023-03-01T05:06:30;42.88;;;28.35;;
75926;SDS011;64605;48.296;16.416;2023-03-01T05:08:56;43.03;;;27.52;;
75926;SDS011;64605;48.296;16.416;2023-03-01T05:11:22;45.03;;;27.65;;
75926;SDS011;64605;48.296;16.416;2023-03-01T05:13:47;44.38;;;28.25;;
75926;SDS011;64605;48.296;16.416;2023-03-01T05:16:15;44.47;;;28.48;;
75926;SDS011;64605;48.296;16.416;2023-03-01T05:18:41;44.20;;;28.42;;
75926;SDS011;64605;48.296;16.416;2023-03-01T05:21:12;42.63;;;27.17;;
75926;SDS011;64605;48.296;16.416;2023-03-01T05:23:42;43.90;;;28.25;;
75926;SDS011;64605;48.296;16.416;2023-03-01T05:26:08;45.45;;;28.35;;
75926;SDS011;64605;48.296;16.416;2023-03-01T05:28:34;43.88;;;27.67;;
75926;SDS011;64605;48.296;16.416;2023-03-01T05:31:00;47.92;;;28.65;;
75926;SDS011;64605;48.296;16.416;2023-03-01T05:33:26;49.67;;;29.38;;
75926;SDS011;64605;48.296;16.416;2023-03-01T05:35:52;44.20;;;29.60;;
75926;SDS011;64605;48.296;16.416;2023-03-01T05:38:18;45.83;;;29.63;;
75926;SDS011;64605;48.296;16.416;2023-03-01T05:40:46;46.15;;;28.92;;
75926;SDS011;64605;48.296;16.416;2023-03-01T05:43:13;45.00;;;27.48;;
75926;SDS011;64605;48.296;16.416;2023-03-01T05:45:40;44.75;;;28.90;;
75926;SDS011;64605;48.296;16.416;2023-03-01T05:48:07;46.42;;;28.55;;
75926;SDS011;64605;48.296;16.416;2023-03-01T05:50:34;46.03;;;29.27;;
75926;SDS011;64605;48.296;16.416;2023-03-01T05:53:04;46.33;;;27.80;;
75926;SDS011;64605;48.296;16.416;2023-03-01T05:55:33;46.95;;;29.52;;
75926;SDS011;64605;48.296;16.416;2023-03-01T05:58:00;44.92;;;29.05;;
75926;SDS011;64605;48.296;16.416;2023-03-01T06:00:27;41.65;;;27.48;;
75926;SDS011;64605;48.296;16.416;2023-03-01T06:02:54;45.25;;;29.05;;
75926;SDS011;64605;48.296;16.416;2023-03-01T06:05:20;45.38;;;28.45;;
75926;SDS011;64605;48.296;16.416;2023-03-01T06:07:46;47.10;;;30.08;;
75926;SDS011;64605;48.296;16.416;2023-03-01T06:10:12;43.30;;;29.30;;
75926;SDS011;64605;48.296;16.416;2023-03-01T06:12:38;45.92;;;28.58;;
75926;SDS011;64605;48.296;16.416;2023-03-01T06:15:06;49.90;;;29.88;;
75926;SDS011;64605;48.296;16.416;2023-03-01T06:17:34;44.47;;;29.05;;
75926;SDS011;64605;48.296;16.416;2023-03-01T06:20:06;51.10;;;31.27;;
75926;SDS011;64605;48.296;16.416;2023-03-01T06:22:34;47.55;;;29.45;;
75926;SDS011;64605;48.296;16.416;2023-03-01T06:24:59;53.28;;;30.05;;
75926;SDS011;64605;48.296;16.416;2023-03-01T06:27:25;47.47;;;30.15;;
75926;SDS011;64605;48.296;16.416;2023-03-01T06:29:51;45.47;;;30.10;;
75926;SDS011;64605;48.296;16.416;2023-03-01T06:32:16;46.90;;;30.58;;
75926;SDS011;64605;48.296;16.416;2023-03-01T06:34:42;44.53;;;29.75;;
75926;SDS011;64605;48.296;16.416;2023-03-01T06:37:08;50.45;;;31.10;;
75926;SDS011;64605;48.296;16.416;2023-03-01T06:39:33;41.15;;;29.38;;
75926;SDS011;64605;48.296;16.416;2023-03-01T06:41:59;45.55;;;30.08;;
75926;SDS011;64605;48.296;16.416;2023-03-01T06:44:25;46.08;;;29.40;;
75926;SDS011;64605;48.296;16.416;2023-03-01T06:46:51;46.88;;;30.02;;
75926;SDS011;64605;48.296;16.416;2023-03-01T06:49:16;48.95;;;30.88;;
75926;SDS011;64605;48.296;16.416;2023-03-01T06:51:43;54.88;;;29.67;;
75926;SDS011;64605;48.296;16.416;2023-03-01T06:54:09;48.90;;;30.40;;
75926;SDS011;64605;48.296;16.416;2023-03-01T06:56:35;45.05;;;29.95;;
75926;SDS011;64605;48.296;16.416;2023-03-01T06:59:01;43.63;;;29.10;;
75926;SDS011;64605;48.296;16.416;2023-03-01T07:01:28;51.13;;;29.70;;
75926;SDS011;64605;48.296;16.416;2023-03-01T07:03:54;46.00;;;29.75;;
75926;SDS011;64605;48.296;16.416;2023-03-01T07:06:20;51.50;;;31.05;;
75926;SDS011;64605;48.296;16.416;2023-03-01T07:08:46;44.10;;;30.30;;
75926;SDS011;64605;48.296;16.416;2023-03-01T07:11:12;49.53;;;30.27;;
75926;SDS011;64605;48.296;16.416;2023-03-01T07:13:38;51.30;;;30.77;;
75926;SDS011;64605;48.296;16.416;2023-03-01T07:16:03;43.63;;;27.80;;
75926;SDS011;64605;48.296;16.416;2023-03-01T07:18:29;48.58;;;30.60;;
75926;SDS011;64605;48.296;16.416;2023-03-01T07:20:55;49.70;;;31.00;;
75926;SDS011;64605;48.296;16.416;2023-03-01T07:23:20;44.97;;;30.63;;
75926;SDS011;64605;48.296;16.416;2023-03-01T07:25:52;53.65;;;30.80;;
75926;SDS011;64605;48.296;16.416;2023-03-01T07:28:19;45.55;;;30.38;;
75926;SDS011;64605;48.296;16.416;2023-03-01T07:30:45;48.08;;;31.17;;
75926;SDS011;64605;48.296;16.416;2023-03-01T07:33:11;49.55;;;32.22;;
75926;SDS011;64605;48.296;16.416;2023-03-01T07:35:36;45.47;;;31.05;;
75926;SDS011;64605;48.296;16.416;2023-03-01T07:38:02;46.03;;;29.70;;
75926;SDS011;64605;48.296;16.416;2023-03-01T07:40:28;44.15;;;28.83;;
75926;SDS011;64605;48.296;16.416;2023-03-01T07:42:56;45.50;;;29.02;;
75926;SDS011;64605;48.296;16.416;2023-03-01T07:45:23;46.63;;;29.65;;
75926;SDS011;64605;48.296;16.416;2023-03-01T07:47:52;45.63;;;30.30;;
75926;SDS011;64605;48.296;16.416;2023-03-01T07:50:19;42.72;;;29.63;;
75926;SDS011;64605;48.296;16.416;2023-03-01T07:52:46;51.35;;;29.55;;
75926;SDS011;64605;48.296;16.416;2023-03-01T07:55:12;43.30;;;28.63;;
75926;SDS011;64605;48.296;16.416;2023-03-01T07:57:38;45.63;;;29.35;;
75926;SDS011;64605;48.296;16.416;2023-03-01T08:00:04;40.90;;;29.23;;
75926;SDS011;64605;48.296;16.416;2023-03-01T08:02:31;45.25;;;29.55;;
75926;SDS011;64605;48.296;16.416;2023-03-01T08:04:57;45.03;;;30.58;;
75926;SDS011;64605;48.296;16.416;2023-03-01T08:07:22;47.60;;;30.60;;
75926;SDS011;64605;48.296;16.416;2023-03-01T08:09:48;41.80;;;29.67;;
75926;SDS011;64605;48.296;16.416;2023-03-01T08:12:14;45.10;;;30.77;;
75926;SDS011;64605;48.296;16.416;2023-03-01T08:14:41;52.10;;;31.98;;
75926;SDS011;64605;48.296;16.416;2023-03-01T08:17:07;48.25;;;33.20;;
75926;SDS011;64605;48.296;16.416;2023-03-01T08:19:33;44.67;;;30.83;;
75926;SDS011;64605;48.296;16.416;2023-03-01T08:21:59;44.42;;;30.60;;
75926;SDS011;64605;48.296;16.416;2023-03-01T08:24:28;40.97;;;30.23;;
75926;SDS011;64605;48.296;16.416;2023-03-01T08:26:54;44.38;;;31.15;;
75926;SDS011;64605;48.296;16.416;2023-03-01T08:29:20;45.90;;;32.17;;
75926;SDS011;64605;48.296;16.416;2023-03-01T08:31:46;46.75;;;30.83;;
75926;SDS011;64605;48.296;16.416;2023-03-01T08:34:13;39.55;;;29.15;;
75926;SDS011;64605;48.296;16.416;2023-03-01T08:36:41;41.33;;;30.75;;
75926;SDS011;64605;48.296;16.416;2023-03-01T08:39:09;40.72;;;30.73;;
75926;SDS011;64605;48.296;16.416;2023-03-01T08:41:36;41.17;;;30.25;;
75926;SDS011;64605;48.296;16.416;2023-03-01T08:44:02;41.55;;;30.08;;
75926;SDS011;64605;48.296;16.416;2023-03-01T08:46:29;45.42;;;30.65;;
75926;SDS011;64605;48.296;16.416;2023-03-01T08:48:59;60.95;;;36.00;;
75926;SDS011;64605;48.296;16.416;2023-03-01T08:51:25;48.17;;;32.10;;
75926;SDS011;64605;48.296;16.416;2023-03-01T08:53:51;41.20;;;30.25;;
75926;SDS011;64605;48.296;16.416;2023-03-01T08:56:18;46.28;;;30.83;;
75926;SDS011;64605;48.296;16.416;2023-03-01T08:58:45;40.08;;;29.95;;
75926;SDS011;64605;48.296;16.416;2023-03-01T09:01:12;44.55;;;30.90;;
75926;SDS011;64605;48.296;16.416;2023-03-01T09:03:39;48.20;;;32.95;;
75926;SDS011;64605;48.296;16.416;2023-03-01T09:06:06;40.20;;;29.42;;
75926;SDS011;64605;48.296;16.416;2023-03-01T09:08:39;41.50;;;30.50;;
75926;SDS011;64605;48.296;16.416;2023-03-01T09:11:07;36.30;;;27.70;;
75926;SDS011;64605;48.296;16.416;2023-03-01T09:13:34;39.42;;;29.10;;
75926;SDS011;64605;48.296;16.416;2023-03-01T09:16:01;39.65;;;28.90;;
75926;SDS011;64605;48.296;16.416;2023-03-01T09:18:28;39.78;;;29.45;;
75926;SDS011;64605;48.296;16.416;2023-03-01T09:21:04;39.83;;;29.48;;
75926;SDS011;64605;48.296;16.416;2023-03-01T09:23:35;38.67;;;28.75;;
75926;SDS011;64605;48.296;16.416;2023-03-01T09:26:03;38.88;;;29.67;;
75926;SDS011;64605;48.296;16.416;2023-03-01T09:28:29;38.22;;;30.05;;
75926;SDS011;64605;48.296;16.416;2023-03-01T09:30:59;37.35;;;29.55;;
75926;SDS011;64605;48.296;16.416;2023-03-01T09:33:26;39.40;;;29.50;;
75926;SDS011;64605;48.296;16.416;2023-03-01T09:35:57;42.10;;;29.33;;
75926;SDS011;64605;48.296;16.416;2023-03-01T09:38:23;40.70;;;27.80;;
75926;SDS011;64605;48.296;16.416;2023-03-01T09:40:48;41.08;;;30.08;;
75926;SDS011;64605;48.296;16.416;2023-03-01T09:45:55;37.28;;;29.52;;
75926;SDS011;64605;48.296;16.416;2023-03-01T09:48:26;41.47;;;29.17;;
75926;SDS011;64605;48.296;16.416;2023-03-01T09:50:58;39.22;;;29.60;;
75926;SDS011;64605;48.296;16.416;2023-03-01T09:53:30;40.78;;;29.67;;
75926;SDS011;64605;48.296;16.416;2023-03-01T09:55:59;40.90;;;29.73;;
75926;SDS011;64605;48.296;16.416;2023-03-01T09:58:34;35.30;;;28.27;;
75926;SDS011;64605;48.296;16.416;2023-03-01T10:01:50;36.80;;;29.70;;
75926;SDS011;64605;48.296;16.416;2023-03-01T10:09:35;36.53;;;29.25;;
75926;SDS011;64605;48.296;16.416;2023-03-01T10:12:33;37.17;;;29.55;;
75926;SDS011;64605;48.296;16.416;2023-03-01T10:17:44;39.78;;;28.92;;
75926;SDS011;64605;48.296;16.416;2023-03-01T10:20:22;39.05;;;28.23;;
75926;SDS011;64605;48.296;16.416;2023-03-01T10:22:54;39.60;;;27.83;;
75926;SDS011;64605;48.296;16.416;2023-03-01T10:27:51;39.15;;;28.15;;
75926;SDS011;64605;48.296;16.416;2023-03-01T10:30:35;40.35;;;28.00;;
75926;SDS011;64605;48.296;16.416;2023-03-01T10:33:08;34.45;;;26.00;;
75926;SDS011;64605;48.296;16.416;2023-03-01T10:35:44;35.67;;;28.40;;
75926;SDS011;64605;48.296;16.416;2023-03-01T10:38:14;40.47;;;28.33;;
75926;SDS011;64605;48.296;16.416;2023-03-01T10:40:57;38.28;;;27.75;;
75926;SDS011;64605;48.296;16.416;2023-03-01T10:51:31;35.40;;;25.50;;
75926;SDS011;64605;48.296;16.416;2023-03-01T10:53:57;38.97;;;26.83;;
75926;SDS011;64605;48.296;16.416;2023-03-01T10:56:23;29.30;;;24.15;;
75926;SDS011;64605;48.296;16.416;2023-03-01T11:01:28;31.35;;;23.20;;
75926;SDS011;64605;48.296;16.416;2023-03-01T11:04:17;28.00;;;23.13;;
75926;SDS011;64605;48.296;16.416;2023-03-01T11:06:43;25.70;;;22.48;;
75926;SDS011;64605;48.296;16.416;2023-03-01T11:09:22;23.80;;;19.63;;
75926;SDS011;64605;48.296;16.416;2023-03-01T11:11:52;20.52;;;17.60;;
75926;SDS011;64605;48.296;16.416;2023-03-01T11:14:26;22.17;;;18.85;;
75926;SDS011;64605;48.296;16.416;2023-03-01T11:17:03;25.92;;;18.50;;
75926;SDS011;64605;48.296;16.416;2023-03-01T11:22:38;22.30;;;18.58;;
75926;SDS011;64605;48.296;16.416;2023-03-01T11:25:19;20.85;;;17.88;;
75926;SDS011;64605;48.296;16.416;2023-03-01T11:27:49;22.35;;;17.73;;
75926;SDS011;64605;48.296;16.416;2023-03-01T11:30:20;20.05;;;16.70;;
75926;SDS011;64605;48.296;16.416;2023-03-01T11:39:17;25.38;;;19.35;;
75926;SDS011;64605;48.296;16.416;2023-03-01T11:41:44;21.40;;;17.65;;
75926;SDS011;64605;48.296;16.416;2023-03-01T11:44:20;20.70;;;17.65;;
75926;SDS011;64605;48.296;16.416;2023-03-01T12:06:28;24.25;;;17.58;;
75926;SDS011;64605;48.296;16.416;2023-03-01T12:09:31;25.95;;;18.10;;
75926;SDS011;64605;48.296;16.416;2023-03-01T12:12:22;24.92;;;17.70;;
75926;SDS011;64605;48.296;16.416;2023-03-01T12:26:30;22.73;;;17.45;;
75926;SDS011;64605;48.296;16.416;2023-03-01T12:29:08;24.42;;;17.80;;
75926;SDS011;64605;48.296;16.416;2023-03-01T12:31:56;22.13;;;17.95;;
75926;SDS011;64605;48.296;16.416;2023-03-01T12:43:09;23.35;;;18.13;;
75926;SDS011;64605;48.296;16.416;2023-03-01T12:50:49;23.35;;;18.48;;
75926;SDS011;64605;48.296;16.416;2023-03-01T12:56:17;24.60;;;18.60;;
75926;SDS011;64605;48.296;16.416;2023-03-01T12:58:50;26.42;;;19.20;;
75926;SDS011;64605;48.296;16.416;2023-03-01T13:17:47;29.10;;;19.70;;
75926;SDS011;64605;48.296;16.416;2023-03-01T13:20:15;26.52;;;20.77;;
75926;SDS011;64605;48.296;16.416;2023-03-01T13:22:45;24.75;;;19.90;;
75926;SDS011;64605;48.296;16.416;2023-03-01T13:25:18;31.65;;;21.35;;
75926;SDS011;64605;48.296;16.416;2023-03-01T13:27:45;27.38;;;21.23;;
75926;SDS011;64605;48.296;16.416;2023-03-01T13:36:07;29.27;;;21.45;;
75926;SDS011;64605;48.296;16.416;2023-03-01T13:38:37;28.58;;;20.77;;
75926;SDS011;64605;48.296;16.416;2023-03-01T13:41:11;28.13;;;21.40;;
75926;SDS011;64605;48.296;16.416;2023-03-01T13:43:42;29.27;;;21.75;;
75926;SDS011;64605;48.296;16.416;2023-03-01T13:48:41;33.67;;;22.10;;
75926;SDS011;64605;48.296;16.416;2023-03-01T13:51:10;32.05;;;21.67;;
75926;SDS011;64605;48.296;16.416;2023-03-01T13:53:38;30.73;;;22.25;;
75926;SDS011;64605;48.296;16.416;2023-03-01T13:56:13;34.70;;;22.50;;
75926;SDS011;64605;48.296;16.416;2023-03-01T13:58:53;27.75;;;21.35;;
75926;SDS011;64605;48.296;16.416;2023-03-01T14:01:30;28.17;;;22.33;;
75926;SDS011;64605;48.296;16.416;2023-03-01T14:04:02;28.05;;;22.10;;
75926;SDS011;64605;48.296;16.416;2023-03-01T14:06:42;29.45;;;20.70;;
75926;SDS011;64605;48.296;16.416;2023-03-01T14:09:21;28.70;;;21.60;;
75926;SDS011;64605;48.296;16.416;2023-03-01T14:20:24;28.52;;;21.38;;
75926;SDS011;64605;48.296;16.416;2023-03-01T14:22:53;26.42;;;20.58;;
75926;SDS011;64605;48.296;16.416;2023-03-01T14:25:22;29.73;;;20.70;;
75926;SDS011;64605;48.296;16.416;2023-03-01T14:30:49;28.50;;;20.88;;
75926;SDS011;64605;48.296;16.416;2023-03-01T14:33:32;28.85;;;21.10;;
75926;SDS011;64605;48.296;16.416;2023-03-01T14:36:11;32.80;;;22.17;;
75926;SDS011;64605;48.296;16.416;2023-03-01T14:38:41;31.73;;;21.63;;
75926;SDS011;64605;48.296;16.416;2023-03-01T14:43:50;28.33;;;21.17;;
75926;SDS011;64605;48.296;16.416;2023-03-01T14:46:38;27.67;;;21.33;;
75926;SDS011;64605;48.296;16.416;2023-03-01T14:49:19;28.95;;;20.77;;
75926;SDS011;64605;48.296;16.416;2023-03-01T14:51:49;31.50;;;20.45;;
75926;SDS011;64605;48.296;16.416;2023-03-01T14:57:12;30.27;;;21.58;;
75926;SDS011;64605;48.296;16.416;2023-03-01T14:59:42;27.65;;;19.98;;
75926;SDS011;64605;48.296;16.416;2023-03-01T15:02:10;29.67;;;19.73;;
75926;SDS011;64605;48.296;16.416;2023-03-01T15:04:41;28.48;;;20.05;;
75926;SDS011;64605;48.296;16.416;2023-03-01T15:07:19;28.23;;;19.52;;
75926;SDS011;64605;48.296;16.416;2023-03-01T15:09:45;33.72;;;20.50;;
75926;SDS011;64605;48.296;16.416;2023-03-01T15:15:00;26.77;;;19.55;;
75926;SDS011;64605;48.296;16.416;2023-03-01T15:17:29;26.42;;;19.70;;
75926;SDS011;64605;48.296;16.416;2023-03-01T15:19:59;29.83;;;20.25;;
75926;SDS011;64605;48.296;16.416;2023-03-01T15:22:43;26.98;;;19.20;;
75926;SDS011;64605;48.296;16.416;2023-03-01T15:25:16;27.17;;;19.38;;
75926;SDS011;64605;48.296;16.416;2023-03-01T15:27:48;26.92;;;19.55;;
75926;SDS011;64605;48.296;16.416;2023-03-01T15:30:36;27.65;;;19.02;;
75926;SDS011;64605;48.296;16.416;2023-03-01T15:35:52;25.90;;;18.25;;
75926;SDS011;64605;48.296;16.416;2023-03-01T15:40:56;27.58;;;19.13;;
75926;SDS011;64605;48.296;16.416;2023-03-01T15:46:03;31.23;;;19.95;;
75926;SDS011;64605;48.296;16.416;2023-03-01T15:48:29;27.40;;;19.40;;
75926;SDS011;64605;48.296;16.416;2023-03-01T15:50:56;27.58;;;20.13;;
75926;SDS011;64605;48.296;16.416;2023-03-01T15:53:24;34.15;;;24.08;;
75926;SDS011;64605;48.296;16.416;2023-03-01T15:55:52;34.80;;;25.55;;
75926;SDS011;64605;48.296;16.416;2023-03-01T15:58:19;110.10;;;95.80;;
75926;SDS011;64605;48.296;16.416;2023-03-01T16:00:46;54.88;;;39.90;;
75926;SDS011;64605;48.296;16.416;2023-03-01T16:03:16;91.90;;;55.63;;
75926;SDS011;64605;48.296;16.416;2023-03-01T16:05:46;35.25;;;23.35;;
75926;SDS011;64605;48.296;16.416;2023-03-01T16:08:13;35.83;;;22.13;;
75926;SDS011;64605;48.296;16.416;2023-03-01T16:10:39;32.03;;;21.40;;
75926;SDS011;64605;48.296;16.416;2023-03-01T16:13:08;32.15;;;22.13;;
75926;SDS011;64605;48.296;16.416;2023-03-01T16:15:37;33.25;;;22.95;;
75926;SDS011;64605;48.296;16.416;2023-03-01T16:18:04;34.85;;;22.17;;
75926;SDS011;64605;48.296;16.416;2023-03-01T16:20:31;33.13;;;22.33;;
75926;SDS011;64605;48.296;16.416;2023-03-01T16:22:58;36.53;;;21.50;;
75926;SDS011;64605;48.296;16.416;2023-03-01T16:25:25;32.22;;;21.55;;
75926;SDS011;64605;48.296;16.416;2023-03-01T16:27:51;35.80;;;22.20;;
75926;SDS011;64605;48.296;16.416;2023-03-01T16:30:18;28.60;;;21.08;;
75926;SDS011;64605;48.296;16.416;2023-03-01T16:32:46;30.77;;;21.10;;
75926;SDS011;64605;48.296;16.416;2023-03-01T16:35:14;30.73;;;20.65;;
75926;SDS011;64605;48.296;16.416;2023-03-01T16:37:41;34.05;;;23.20;;
75926;SDS011;64605;48.296;16.416;2023-03-01T16:40:15;33.85;;;22.83;;
75926;SDS011;64605;48.296;16.416;2023-03-01T16:42:47;33.35;;;22.17;;
75926;SDS011;64605;48.296;16.416;2023-03-01T16:45:14;31.65;;;21.85;;
75926;SDS011;64605;48.296;16.416;2023-03-01T16:47:40;41.83;;;22.83;;
75926;SDS011;64605;48.296;16.416;2023-03-01T16:50:06;29.90;;;20.55;;